Time;durP1;ratioP1;P1;durP2;ratioP2;P2;SDS_P1;SDS_P2;PMS_P1;PMS_P2;Temp;Humidity;BMP_temperature;BMP_pressure;BME280_temperature;BME280_humidity;BME280_pressure;Samples;Min_cycle;Max_cycle;Signal;HPM_P1;HPM_P2
2024/01/26 00:01:39;;;;;;;2.67;1.30;;;22.40;53.40;;;;;;4960211;28;87228;-57
2024/01/26 00:04:04;;;;;;;2.38;1.30;;;22.40;53.40;;;;;;4956172;28;87575;-57
2024/01/26 00:06:31;;;;;;;2.40;1.27;;;22.40;53.50;;;;;;4951077;28;89594;-60
2024/01/26 00:09:07;;;;;;;3.38;1.50;;;22.40;53.40;;;;;;4953652;28;90223;-60
2024/01/26 00:11:33;;;;;;;2.45;1.30;;;22.40;53.40;;;;;;4953811;27;87773;-60
2024/01/26 00:13:59;;;;;;;3.15;1.45;;;22.30;53.30;;;;;;4953117;28;87604;-60
2024/01/26 00:16:25;;;;;;;3.50;1.40;;;22.30;53.30;;;;;;4953856;28;87639;-60
2024/01/26 00:18:52;;;;;;;3.17;1.52;;;22.30;53.40;;;;;;4953723;28;88445;-59
2024/01/26 00:21:18;;;;;;;1.65;1.15;;;22.20;53.30;;;;;;4953924;28;88325;-59
2024/01/26 00:23:44;;;;;;;2.15;1.27;;;22.20;53.40;;;;;;4958389;28;86971;-60
2024/01/26 00:26:12;;;;;;;2.10;1.45;;;22.20;53.20;;;;;;4955914;28;89072;-59
2024/01/26 00:28:39;;;;;;;2.05;1.40;;;22.20;53.40;;;;;;4959419;28;87917;-60
2024/01/26 00:31:04;;;;;;;1.52;1.42;;;22.20;53.40;;;;;;4972812;28;88786;-60
2024/01/26 00:33:31;;;;;;;1.58;1.10;;;22.20;53.50;;;;;;4954615;28;87701;-59
2024/01/26 00:35:56;;;;;;;1.70;1.08;;;22.10;53.50;;;;;;4954529;28;88356;-60
2024/01/26 00:38:22;;;;;;;2.47;1.23;;;22.20;53.30;;;;;;4954604;28;89443;-60
2024/01/26 00:40:50;;;;;;;2.05;1.20;;;22.10;53.30;;;;;;4958622;28;87448;-60
2024/01/26 00:43:16;;;;;;;1.48;1.08;;;22.10;53.40;;;;;;4951620;28;88059;-59
2024/01/26 00:45:42;;;;;;;1.30;1.08;;;22.10;53.60;;;;;;4948743;28;88617;-60
2024/01/26 00:48:08;;;;;;;1.70;1.30;;;22.10;53.40;;;;;;4958424;28;87790;-59
2024/01/26 00:50:34;;;;;;;3.65;1.50;;;22.10;53.60;;;;;;4957996;28;88396;-60
2024/01/26 00:53:01;;;;;;;1.52;1.15;;;22.10;53.50;;;;;;4957470;27;87942;-60
2024/01/26 00:55:29;;;;;;;2.15;1.10;;;22.10;53.50;;;;;;4958646;28;88648;-60
2024/01/26 00:57:59;;;;;;;1.60;1.00;;;22.00;53.50;;;;;;4957148;28;89488;-60
2024/01/26 01:00:26;;;;;;;1.65;1.30;;;22.00;53.60;;;;;;4955364;28;87750;-60
2024/01/26 01:02:53;;;;;;;1.67;1.30;;;22.00;53.50;;;;;;4959164;28;87383;-60
2024/01/26 01:05:20;;;;;;;1.65;1.08;;;21.90;53.30;;;;;;4958248;27;88978;-59
2024/01/26 01:07:46;;;;;;;1.10;1.00;;;21.90;53.50;;;;;;4954581;28;87084;-57
2024/01/26 01:10:14;;;;;;;1.77;1.20;;;21.90;53.50;;;;;;4960001;27;87565;-60
2024/01/26 01:12:43;;;;;;;1.73;0.95;;;21.90;53.50;;;;;;4957297;28;87349;-60
2024/01/26 01:15:12;;;;;;;1.88;1.00;;;21.90;53.50;;;;;;4957792;28;88603;-59
2024/01/26 01:17:43;;;;;;;1.77;1.17;;;21.90;53.50;;;;;;4958599;28;88318;-60
2024/01/26 01:20:10;;;;;;;1.92;1.10;;;21.90;54.20;;;;;;4955497;27;88938;-60
2024/01/26 01:22:43;;;;;;;1.25;1.10;;;21.90;53.70;;;;;;4957432;28;87237;-58
2024/01/26 01:25:13;;;;;;;1.88;1.30;;;21.80;53.50;;;;;;4972249;28;89028;-60
2024/01/26 01:27:39;;;;;;;1.67;1.25;;;21.80;53.60;;;;;;4957401;28;89754;-60
2024/01/26 01:30:06;;;;;;;1.27;1.02;;;21.80;53.70;;;;;;4958730;28;87530;-59
2024/01/26 01:32:34;;;;;;;2.03;1.20;;;21.80;53.60;;;;;;4957553;28;87560;-60
2024/01/26 01:35:00;;;;;;;1.10;1.00;;;21.80;53.70;;;;;;4955138;28;88092;-60
2024/01/26 01:37:26;;;;;;;1.55;1.10;;;21.80;53.70;;;;;;4960482;28;87310;-59
2024/01/26 01:39:51;;;;;;;2.58;1.20;;;21.80;53.70;;;;;;4960787;28;87656;-60
2024/01/26 01:42:17;;;;;;;1.48;1.20;;;21.80;54.20;;;;;;4959734;27;88410;-59
2024/01/26 01:44:44;;;;;;;1.10;1.00;;;21.80;53.70;;;;;;4955464;28;88919;-60
2024/01/26 01:47:11;;;;;;;2.10;1.33;;;21.70;53.60;;;;;;4959363;28;89203;-60
2024/01/26 01:49:38;;;;;;;1.40;0.80;;;21.70;53.60;;;;;;4960947;28;87546;-59
2024/01/26 01:52:07;;;;;;;3.22;1.70;;;21.70;53.60;;;;;;4954550;28;87839;-59
2024/01/26 01:54:34;;;;;;;1.80;1.20;;;21.70;53.60;;;;;;4959129;28;88611;-59
2024/01/26 01:57:03;;;;;;;1.38;1.10;;;21.70;53.70;;;;;;4954847;28;88603;-60
2024/01/26 01:59:29;;;;;;;;;;;21.70;53.50;;;;;;4951998;28;87475;-60
2024/01/26 02:01:55;;;;;;;1.88;1.30;;;21.70;53.70;;;;;;4965398;28;86637;-58
2024/01/26 02:04:21;;;;;;;2.25;0.95;;;21.60;53.50;;;;;;4988823;28;91920;-59
2024/01/26 02:06:58;;;;;;;1.75;1.10;;;21.70;53.60;;;;;;4951744;28;87600;-59
2024/01/26 02:09:24;;;;;;;1.15;0.90;;;21.60;53.50;;;;;;4975039;28;88392;-60
2024/01/26 02:11:51;;;;;;;1.67;1.00;;;21.60;53.70;;;;;;4955818;28;87215;-60
2024/01/26 02:14:17;;;;;;;0.88;0.82;;;21.60;53.70;;;;;;4955860;28;87941;-60
2024/01/26 02:16:53;;;;;;;1.02;0.90;;;21.60;53.70;;;;;;4957264;28;89179;-60
2024/01/26 02:19:21;;;;;;;1.38;1.10;;;21.60;53.60;;;;;;4985838;28;87603;-60
2024/01/26 02:21:46;;;;;;;0.80;0.80;;;21.60;53.60;;;;;;4955983;28;87829;-59
2024/01/26 02:24:13;;;;;;;1.85;1.35;;;21.60;53.60;;;;;;4952117;28;88211;-59
2024/01/26 02:26:39;;;;;;;2.30;1.10;;;21.60;53.80;;;;;;4955192;28;87233;-60
2024/01/26 02:29:06;;;;;;;1.60;1.20;;;21.60;54.10;;;;;;4957733;27;87972;-59
2024/01/26 02:31:32;;;;;;;1.38;0.90;;;21.60;53.50;;;;;;4958226;28;88061;-58
2024/01/26 02:33:58;;;;;;;1.77;1.10;;;21.50;53.40;;;;;;4953847;28;88985;-60
2024/01/26 02:36:25;;;;;;;1.60;1.10;;;21.50;53.50;;;;;;4954689;27;88101;-59
2024/01/26 02:38:51;;;;;;;2.33;1.55;;;21.50;53.30;;;;;;4955094;28;87435;-59
2024/01/26 02:41:17;;;;;;;2.72;1.15;;;21.50;53.40;;;;;;4956975;28;87831;-60
2024/01/26 02:43:42;;;;;;;1.35;1.13;;;21.50;53.50;;;;;;4954104;28;88009;-60
2024/01/26 02:46:09;;;;;;;2.53;1.30;;;21.50;53.60;;;;;;4954490;28;89050;-59
2024/01/26 02:48:35;;;;;;;1.42;1.10;;;21.50;53.50;;;;;;4957064;27;86963;-58
2024/01/26 02:51:01;;;;;;;1.50;1.10;;;21.50;54.10;;;;;;4954103;27;86788;-60
2024/01/26 02:53:27;;;;;;;1.70;1.10;;;21.40;53.40;;;;;;4955313;28;88580;-60
2024/01/26 02:55:53;;;;;;;2.40;1.10;;;21.40;53.50;;;;;;4956043;28;88182;-58
2024/01/26 02:58:21;;;;;;;1.63;1.10;;;21.40;53.40;;;;;;4956606;28;88266;-60
2024/01/26 03:00:47;;;;;;;1.00;0.90;;;21.50;53.50;;;;;;4957798;28;88125;-59
2024/01/26 03:03:13;;;;;;;1.90;1.35;;;21.40;53.40;;;;;;4937545;28;88077;-60
2024/01/26 03:05:39;;;;;;;1.50;0.98;;;21.40;53.50;;;;;;4954309;28;87709;-58
2024/01/26 03:08:05;;;;;;;1.20;1.10;;;21.40;53.40;;;;;;4947989;28;87765;-59
2024/01/26 03:10:31;;;;;;;1.55;1.10;;;21.40;53.20;;;;;;4961593;28;87204;-58
2024/01/26 03:12:57;;;;;;;1.55;1.15;;;21.30;53.40;;;;;;4961832;28;88555;-59
2024/01/26 03:15:23;;;;;;;1.35;1.20;;;21.40;53.50;;;;;;4956067;27;87923;-59
2024/01/26 03:17:49;;;;;;;1.20;1.10;;;21.30;53.40;;;;;;4956758;27;87155;-60
2024/01/26 03:20:14;;;;;;;1.08;0.90;;;21.30;53.40;;;;;;4958788;27;87552;-60
2024/01/26 03:22:43;;;;;;;1.50;1.15;;;21.30;53.40;;;;;;4954662;28;88245;-60
2024/01/26 03:25:09;;;;;;;1.23;1.13;;;21.30;53.30;;;;;;4954659;28;89798;-59
2024/01/26 03:27:35;;;;;;;1.15;0.98;;;21.30;53.30;;;;;;4958218;28;87515;-59
2024/01/26 03:30:02;;;;;;;1.48;1.10;;;21.30;53.40;;;;;;4952304;28;87960;-59
2024/01/26 03:32:27;;;;;;;1.48;1.00;;;21.30;53.30;;;;;;4959215;28;88008;-60
2024/01/26 03:34:53;;;;;;;1.23;1.08;;;21.30;53.30;;;;;;4955796;28;88063;-59
2024/01/26 03:37:19;;;;;;;1.23;1.13;;;21.30;53.30;;;;;;4957138;28;87513;-59
2024/01/26 03:39:45;;;;;;;2.10;1.20;;;21.30;53.50;;;;;;4956747;27;86770;-60
2024/01/26 03:42:11;;;;;;;1.27;1.10;;;21.30;53.40;;;;;;4953978;28;87638;-59
2024/01/26 03:44:38;;;;;;;1.25;1.00;;;21.20;53.30;;;;;;4959956;28;88105;-59
2024/01/26 03:47:05;;;;;;;1.15;0.95;;;21.20;53.30;;;;;;4952546;28;88322;-58
2024/01/26 03:49:31;;;;;;;1.20;1.08;;;21.30;53.20;;;;;;4990190;28;88261;-58
2024/01/26 03:51:56;;;;;;;1.52;1.15;;;21.20;53.50;;;;;;4955596;28;87541;-58
2024/01/26 03:54:22;;;;;;;1.23;0.98;;;21.20;53.20;;;;;;4958774;28;88089;-59
2024/01/26 03:56:49;;;;;;;2.22;1.30;;;21.20;53.20;;;;;;4955316;28;87761;-58
2024/01/26 03:59:15;;;;;;;1.08;0.90;;;21.20;53.30;;;;;;4955661;27;87947;-59
2024/01/26 04:01:43;;;;;;;1.02;0.70;;;21.20;53.40;;;;;;4957250;28;88011;-59
2024/01/26 04:04:09;;;;;;;1.17;1.05;;;21.20;53.30;;;;;;4989216;28;90387;-58
2024/01/26 04:06:41;;;;;;;0.88;0.70;;;21.20;53.50;;;;;;4954038;27;87439;-59
2024/01/26 04:09:12;;;;;;;1.23;1.08;;;21.20;53.30;;;;;;4959502;27;88169;-57
2024/01/26 04:11:38;;;;;;;1.48;0.98;;;21.20;53.20;;;;;;4984493;28;90669;-58
2024/01/26 04:14:04;;;;;;;1.23;0.95;;;21.20;53.40;;;;;;4955544;28;88184;-58
2024/01/26 04:16:30;;;;;;;1.13;0.98;;;21.20;53.40;;;;;;4953797;28;87793;-58
2024/01/26 04:18:56;;;;;;;1.75;1.00;;;21.20;53.40;;;;;;4955786;28;87960;-57
2024/01/26 04:21:21;;;;;;;1.95;1.27;;;21.10;53.30;;;;;;4956537;28;88149;-58
2024/01/26 04:23:47;;;;;;;1.38;1.27;;;21.10;53.20;;;;;;4955663;28;87903;-59
2024/01/26 04:26:14;;;;;;;1.65;0.90;;;21.10;53.30;;;;;;4956318;27;87973;-59
2024/01/26 04:28:41;;;;;;;1.33;1.10;;;21.10;53.90;;;;;;4957584;28;86859;-59
2024/01/26 04:31:08;;;;;;;1.58;1.10;;;21.10;53.40;;;;;;4938491;28;89068;-59
2024/01/26 04:33:33;;;;;;;1.00;0.70;;;21.10;53.40;;;;;;4959485;28;88499;-58
2024/01/26 04:36:00;;;;;;;0.80;0.80;;;21.10;53.40;;;;;;4951191;28;88828;-58
2024/01/26 04:38:26;;;;;;;2.30;0.85;;;21.10;53.40;;;;;;4951244;28;87501;-58
2024/01/26 04:40:51;;;;;;;0.80;0.80;;;21.10;53.20;;;;;;4955388;28;88718;-59
2024/01/26 04:43:18;;;;;;;0.77;0.68;;;21.10;53.30;;;;;;4956413;28;87776;-59
2024/01/26 04:45:44;;;;;;;1.05;0.80;;;21.10;53.30;;;;;;4951733;28;87417;-58
2024/01/26 04:48:10;;;;;;;1.15;1.00;;;21.10;53.40;;;;;;4954891;27;87355;-58
2024/01/26 04:50:35;;;;;;;1.60;1.08;;;21.10;53.30;;;;;;4956565;28;88130;-57
2024/01/26 04:53:01;;;;;;;1.27;1.10;;;21.10;53.40;;;;;;4958329;28;88296;-58
2024/01/26 04:55:29;;;;;;;0.90;0.80;;;21.10;53.20;;;;;;4956646;28;87047;-57
2024/01/26 04:57:55;;;;;;;0.82;0.80;;;21.00;53.40;;;;;;4955430;28;88527;-58
2024/01/26 05:00:21;;;;;;;1.13;1.02;;;21.00;53.40;;;;;;4949776;28;90413;-58
2024/01/26 05:02:47;;;;;;;1.35;1.00;;;21.00;53.20;;;;;;4956199;27;88711;-58
2024/01/26 05:05:13;;;;;;;1.13;0.80;;;21.00;53.20;;;;;;4986996;28;87206;-57
2024/01/26 05:07:40;;;;;;;0.90;0.90;;;21.00;53.30;;;;;;4955665;28;87627;-58
2024/01/26 05:10:07;;;;;;;0.70;0.70;;;21.00;53.30;;;;;;4952676;28;89388;-59
2024/01/26 05:12:33;;;;;;;1.75;1.00;;;21.00;53.30;;;;;;4953271;27;87975;-58
2024/01/26 05:14:59;;;;;;;1.48;0.80;;;21.00;53.30;;;;;;4955603;27;87302;-59
2024/01/26 05:17:24;;;;;;;0.68;0.68;;;21.00;53.30;;;;;;4957971;27;86892;-58
2024/01/26 05:19:51;;;;;;;0.60;0.60;;;21.00;53.20;;;;;;4954667;28;89559;-59
2024/01/26 05:22:18;;;;;;;1.15;0.77;;;21.00;53.40;;;;;;4950118;28;88481;-58
2024/01/26 05:24:45;;;;;;;1.10;0.88;;;21.00;53.50;;;;;;4955258;28;89134;-60
2024/01/26 05:27:11;;;;;;;0.98;0.75;;;21.00;53.40;;;;;;4967663;28;88910;-58
2024/01/26 05:29:37;;;;;;;1.20;1.10;;;21.00;53.40;;;;;;4954066;28;87681;-58
2024/01/26 05:32:03;;;;;;;1.10;1.00;;;21.00;53.30;;;;;;4954958;27;87316;-58
2024/01/26 05:34:28;;;;;;;0.85;0.80;;;20.90;53.20;;;;;;4955885;28;87023;-59
2024/01/26 05:36:54;;;;;;;1.33;1.05;;;20.90;53.20;;;;;;4969162;27;87204;-59
2024/01/26 05:39:20;;;;;;;0.88;0.80;;;20.90;53.20;;;;;;4949387;27;87317;-56
2024/01/26 05:41:46;;;;;;;1.20;1.02;;;20.90;53.20;;;;;;4955162;28;88106;-58
2024/01/26 05:44:13;;;;;;;1.02;0.98;;;20.90;53.20;;;;;;4953500;28;87088;-58
2024/01/26 05:46:38;;;;;;;1.00;0.82;;;20.90;53.20;;;;;;4959807;28;87635;-58
2024/01/26 05:49:04;;;;;;;1.40;1.10;;;20.90;53.00;;;;;;4957350;27;88598;-58
2024/01/26 05:51:30;;;;;;;1.10;0.80;;;20.90;53.10;;;;;;4957463;27;88660;-59
2024/01/26 05:53:56;;;;;;;1.58;1.00;;;20.90;53.20;;;;;;4958932;28;88690;-59
2024/01/26 05:56:21;;;;;;;0.90;0.80;;;20.90;53.30;;;;;;4958897;27;88744;-58
2024/01/26 05:58:49;;;;;;;1.00;0.80;;;20.90;53.30;;;;;;4957066;28;87891;-58
2024/01/26 06:01:15;;;;;;;0.80;0.70;;;20.90;53.20;;;;;;4957231;28;87898;-59
2024/01/26 06:03:40;;;;;;;1.70;1.20;;;20.90;53.20;;;;;;4956346;27;87489;-58
2024/01/26 06:06:07;;;;;;;0.98;0.82;;;20.80;53.20;;;;;;4958339;28;86859;-58
2024/01/26 06:08:33;;;;;;;1.40;0.90;;;20.80;53.20;;;;;;4959345;28;88117;-59
2024/01/26 06:11:00;;;;;;;0.88;0.75;;;20.80;53.20;;;;;;4954967;28;87591;-59
2024/01/26 06:13:26;;;;;;;0.98;0.80;;;20.80;53.20;;;;;;4961706;28;88670;-58
2024/01/26 06:15:53;;;;;;;1.08;0.90;;;20.80;53.20;;;;;;4955453;28;87083;-59
2024/01/26 06:18:18;;;;;;;1.25;1.10;;;20.80;53.00;;;;;;4959954;28;89247;-59
2024/01/26 06:20:45;;;;;;;1.13;1.00;;;20.80;53.00;;;;;;4956359;28;87805;-58
2024/01/26 06:23:10;;;;;;;2.10;1.20;;;20.80;52.90;;;;;;4953805;28;86931;-58
2024/01/26 06:25:36;;;;;;;0.95;0.82;;;20.80;53.00;;;;;;4953954;28;89425;-58
2024/01/26 06:28:02;;;;;;;1.02;0.80;;;20.80;53.00;;;;;;4953615;28;87455;-58
2024/01/26 06:30:27;;;;;;;0.80;0.80;;;20.80;53.00;;;;;;4953968;28;89300;-58
2024/01/26 06:32:54;;;;;;;1.52;1.05;;;20.80;52.90;;;;;;4956638;27;87543;-59
2024/01/26 06:35:20;;;;;;;1.15;0.80;;;20.80;52.90;;;;;;4952530;28;88785;-59
2024/01/26 06:37:45;;;;;;;1.08;0.80;;;20.80;52.90;;;;;;4955301;28;89817;-57
2024/01/26 06:40:12;;;;;;;1.17;0.90;;;20.80;53.00;;;;;;4957695;28;88252;-58
2024/01/26 06:42:39;;;;;;;1.13;1.00;;;20.80;52.90;;;;;;4956835;28;87444;-56
2024/01/26 06:45:08;;;;;;;1.25;1.02;;;20.80;52.90;;;;;;4955654;28;87927;-59
2024/01/26 06:47:33;;;;;;;0.60;0.60;;;20.80;52.90;;;;;;4955970;28;87768;-59
2024/01/26 06:49:59;;;;;;;1.20;1.10;;;20.80;53.00;;;;;;4984764;27;88449;-57
2024/01/26 06:52:25;;;;;;;0.80;0.70;;;20.80;53.00;;;;;;4955661;28;87637;-58
2024/01/26 06:54:51;;;;;;;0.82;0.80;;;20.70;52.90;;;;;;4972450;28;88537;-59
2024/01/26 06:57:16;;;;;;;1.83;0.90;;;20.70;52.90;;;;;;4956533;27;88085;-58
2024/01/26 06:59:43;;;;;;;1.13;1.02;;;20.70;53.00;;;;;;4953183;28;88821;-59
2024/01/26 07:02:09;;;;;;;0.98;0.77;;;20.70;52.90;;;;;;4953132;28;89172;-58
2024/01/26 07:04:35;;;;;;;1.48;1.00;;;20.70;52.90;;;;;;4958024;28;87225;-58
2024/01/26 07:07:00;;;;;;;1.20;0.80;;;20.70;52.90;;;;;;4959219;27;88328;-59
2024/01/26 07:09:26;;;;;;;1.00;0.80;;;20.70;52.90;;;;;;4953636;28;88481;-59
2024/01/26 07:11:52;;;;;;;0.90;0.80;;;20.70;52.80;;;;;;4953051;28;88453;-59
2024/01/26 07:14:22;;;;;;;1.73;1.15;;;20.70;53.00;;;;;;4969171;28;87698;-58
2024/01/26 07:16:47;;;;;;;1.23;0.90;;;20.70;52.70;;;;;;4959841;28;88567;-59
2024/01/26 07:19:14;;;;;;;1.40;0.70;;;20.70;52.90;;;;;;4957693;28;87343;-59
2024/01/26 07:21:40;;;;;;;1.67;0.85;;;20.70;52.90;;;;;;4958161;28;88167;-58
2024/01/26 07:24:06;;;;;;;1.85;1.23;;;20.70;53.00;;;;;;4955501;28;87683;-58
2024/01/26 07:26:32;;;;;;;1.10;0.80;;;20.70;52.90;;;;;;4953017;28;89363;-58
2024/01/26 07:28:58;;;;;;;1.77;0.90;;;20.70;53.00;;;;;;4954171;27;88884;-57
2024/01/26 07:31:24;;;;;;;1.90;1.00;;;20.70;53.00;;;;;;4952128;28;86972;-58
2024/01/26 07:33:50;;;;;;;1.42;0.90;;;20.70;53.20;;;;;;4954577;28;88499;-58
2024/01/26 07:36:16;;;;;;;1.05;0.90;;;20.70;52.80;;;;;;4935845;28;88887;-57
2024/01/26 07:38:42;;;;;;;2.78;1.00;;;20.80;53.40;;;;;;4972045;28;89186;-58
2024/01/26 07:41:09;;;;;;;1.08;0.98;;;20.90;53.80;;;;;;4951303;28;87582;-58
2024/01/26 07:43:36;;;;;;;1.25;0.80;;;21.00;53.90;;;;;;4962129;28;87358;-58
2024/01/26 07:46:02;;;;;;;0.90;0.85;;;21.10;53.80;;;;;;4953147;28;88234;-59
2024/01/26 07:48:30;;;;;;;2.92;1.08;;;21.30;54.00;;;;;;4970017;28;87409;-59
2024/01/26 07:50:56;;;;;;;0.88;0.88;;;21.40;54.10;;;;;;4954071;28;88566;-58
2024/01/26 07:53:23;;;;;;;1.73;0.80;;;21.50;54.00;;;;;;4953729;28;87332;-59
2024/01/26 07:55:50;;;;;;;1.00;0.90;;;21.50;53.90;;;;;;4953901;28;88286;-58
2024/01/26 07:58:16;;;;;;;1.00;0.90;;;21.50;53.80;;;;;;4951117;28;88000;-58
2024/01/26 08:00:42;;;;;;;1.15;1.02;;;21.60;54.10;;;;;;4952166;27;87313;-58
2024/01/26 08:03:07;;;;;;;1.40;0.95;;;21.70;53.80;;;;;;4954003;28;87103;-58
2024/01/26 08:05:34;;;;;;;0.98;0.73;;;21.80;53.80;;;;;;4954112;28;88334;-58
2024/01/26 08:08:00;;;;;;;1.70;0.80;;;21.80;53.90;;;;;;4951024;28;88217;-56
2024/01/26 08:10:27;;;;;;;1.20;0.75;;;21.90;53.50;;;;;;4988549;28;87488;-58
2024/01/26 08:12:53;;;;;;;1.13;0.90;;;21.90;53.40;;;;;;4957955;28;87639;-58
2024/01/26 08:15:19;;;;;;;1.65;0.82;;;22.00;53.50;;;;;;4949725;28;91002;-58
2024/01/26 08:17:44;;;;;;;1.30;0.98;;;22.00;53.20;;;;;;4951003;28;90611;-58
2024/01/26 08:20:10;;;;;;;0.98;0.80;;;22.10;53.50;;;;;;4953985;27;88060;-58
2024/01/26 08:22:38;;;;;;;1.30;0.80;;;22.10;53.10;;;;;;4955073;28;86937;-58
2024/01/26 08:25:05;;;;;;;0.73;0.68;;;22.20;53.20;;;;;;4950272;27;88469;-58
2024/01/26 08:27:31;;;;;;;1.25;1.05;;;22.20;53.00;;;;;;4952847;28;88751;-59
2024/01/26 08:29:57;;;;;;;1.42;0.80;;;22.30;52.80;;;;;;4949889;28;88016;-58
2024/01/26 08:32:24;;;;;;;1.13;0.75;;;22.30;52.90;;;;;;4952299;28;86996;-59
2024/01/26 08:34:50;;;;;;;0.75;0.75;;;22.30;52.80;;;;;;4955166;28;88008;-57
2024/01/26 08:37:17;;;;;;;0.85;0.80;;;22.40;52.80;;;;;;4955981;28;87855;-58
2024/01/26 08:39:46;;;;;;;1.92;0.60;;;22.40;52.80;;;;;;4954830;28;88597;-59
2024/01/26 08:42:12;;;;;;;12.68;2.53;;;22.40;52.70;;;;;;4986405;28;87670;-58
2024/01/26 08:44:38;;;;;;;13.90;2.95;;;22.50;52.50;;;;;;4953930;28;88912;-58
2024/01/26 08:47:04;;;;;;;17.90;3.65;;;22.50;52.40;;;;;;4949612;27;89865;-59
2024/01/26 08:49:30;;;;;;;16.20;3.83;;;22.50;52.20;;;;;;4978487;28;87752;-60
2024/01/26 08:51:59;;;;;;;12.45;2.63;;;22.50;51.80;;;;;;4946386;28;88305;-59
2024/01/26 08:54:25;;;;;;;14.73;3.43;;;22.50;51.70;;;;;;4947279;28;88959;-59
2024/01/26 08:56:56;;;;;;;13.27;3.97;;;22.60;51.80;;;;;;4948004;28;87359;-59
2024/01/26 08:59:22;;;;;;;14.40;3.50;;;22.60;52.10;;;;;;4945503;28;87374;-59
2024/01/26 09:01:49;;;;;;;11.15;4.15;;;22.60;52.30;;;;;;4955079;28;88120;-59
2024/01/26 09:04:15;;;;;;;11.32;3.45;;;22.60;52.70;;;;;;4953122;27;89197;-59
2024/01/26 09:06:42;;;;;;;12.93;3.53;;;22.60;52.90;;;;;;4954698;28;88775;-58
2024/01/26 09:09:08;;;;;;;17.40;4.35;;;22.70;52.80;;;;;;4973597;28;87915;-59
2024/01/26 09:11:35;;;;;;;15.13;3.83;;;22.80;52.60;;;;;;4953215;28;87800;-59
2024/01/26 09:14:01;;;;;;;13.40;2.97;;;22.80;52.60;;;;;;4954698;28;87506;-59
2024/01/26 09:16:27;;;;;;;16.60;4.05;;;22.80;52.60;;;;;;4956464;28;88190;-59
2024/01/26 09:18:52;;;;;;;13.82;4.50;;;22.80;52.80;;;;;;4955919;28;87386;-58
2024/01/26 09:21:18;;;;;;;12.20;3.85;;;22.80;53.00;;;;;;4959449;28;87014;-59
2024/01/26 09:23:44;;;;;;;12.90;3.40;;;22.80;53.00;;;;;;4957775;28;89374;-59
2024/01/26 09:26:10;;;;;;;15.57;4.35;;;22.80;53.60;;;;;;4956858;28;88772;-59
2024/01/26 09:28:37;;;;;;;14.70;5.45;;;22.80;53.40;;;;;;4957132;28;88403;-59
2024/01/26 09:31:03;;;;;;;13.88;4.00;;;22.90;53.80;;;;;;4958274;27;87386;-59
2024/01/26 09:33:28;;;;;;;14.30;4.63;;;22.90;53.80;;;;;;4954421;28;89209;-59
2024/01/26 09:35:56;;;;;;;16.77;4.55;;;22.90;53.80;;;;;;4958077;28;87597;-59
2024/01/26 09:38:24;;;;;;;9.15;3.95;;;23.00;53.70;;;;;;4959305;28;87150;-59
2024/01/26 09:40:51;;;;;;;13.70;4.23;;;22.90;53.40;;;;;;4955262;28;87392;-59
2024/01/26 09:43:17;;;;;;;11.55;4.20;;;23.00;53.70;;;;;;4978585;27;88702;-59
2024/01/26 09:45:43;;;;;;;11.85;4.22;;;23.00;53.40;;;;;;4952235;27;87064;-59
2024/01/26 09:48:09;;;;;;;9.75;3.60;;;23.00;53.60;;;;;;4957239;28;87990;-58
2024/01/26 09:50:36;;;;;;;18.88;4.45;;;23.00;53.60;;;;;;4960984;28;87446;-59
2024/01/26 09:53:05;;;;;;;14.63;4.40;;;23.00;53.60;;;;;;4943069;27;89616;-58
2024/01/26 09:55:32;;;;;;;10.18;3.65;;;23.00;53.40;;;;;;4958882;28;87770;-59
2024/01/26 09:57:59;;;;;;;13.18;4.60;;;23.00;53.70;;;;;;4954127;28;87123;-58
2024/01/26 10:00:24;;;;;;;9.38;3.63;;;23.00;53.90;;;;;;4960276;28;87225;-59
2024/01/26 10:02:50;;;;;;;11.05;3.38;;;23.00;53.90;;;;;;4956603;28;88408;-59
2024/01/26 10:05:20;;;;;;;12.90;4.82;;;23.00;53.90;;;;;;4952101;28;87383;-56
2024/01/26 10:07:46;;;;;;;13.98;4.43;;;23.10;54.00;;;;;;4958492;28;87624;-58
2024/01/26 10:10:13;;;;;;;7.97;3.42;;;23.10;53.50;;;;;;4956144;28;87161;-59
2024/01/26 10:12:41;;;;;;;9.20;3.55;;;23.10;53.40;;;;;;4958557;28;87430;-59
2024/01/26 10:15:11;;;;;;;5.28;2.38;;;23.10;53.60;;;;;;4958027;28;88113;-60
2024/01/26 10:17:38;;;;;;;9.60;2.80;;;23.10;53.70;;;;;;4954989;28;88441;-59
2024/01/26 10:20:08;;;;;;;9.98;2.85;;;23.10;53.70;;;;;;4953774;28;87464;-59
2024/01/26 10:22:37;;;;;;;8.55;2.90;;;23.10;53.90;;;;;;4957556;28;90670;-56
2024/01/26 10:25:04;;;;;;;10.95;2.92;;;23.10;54.10;;;;;;4954291;28;88558;-59
2024/01/26 10:27:31;;;;;;;7.68;3.03;;;23.00;54.20;;;;;;4953743;28;87243;-59
2024/01/26 10:29:57;;;;;;;8.15;3.47;;;23.00;55.20;;;;;;4958360;28;87912;-59
2024/01/26 10:32:27;;;;;;;7.15;3.17;;;22.90;55.20;;;;;;4955566;28;87685;-59
2024/01/26 10:34:58;;;;;;;9.52;3.03;;;22.90;55.40;;;;;;4959424;28;87765;-59
2024/01/26 10:37:27;;;;;;;9.57;3.35;;;22.80;55.70;;;;;;4955345;28;86981;-59
2024/01/26 10:39:55;;;;;;;13.48;3.00;;;22.80;55.20;;;;;;4953714;28;87658;-59
2024/01/26 10:42:21;;;;;;;11.05;3.38;;;22.80;54.90;;;;;;4953408;28;90264;-61
2024/01/26 10:44:52;;;;;;;5.60;2.55;;;22.80;55.40;;;;;;4957982;27;89483;-59
2024/01/26 10:47:18;;;;;;;8.48;2.63;;;22.70;57.90;;;;;;4988228;28;88215;-59
2024/01/26 10:49:48;;;;;;;7.78;2.80;;;22.70;55.50;;;;;;4957467;28;87365;-58
2024/01/26 10:52:19;;;;;;;6.00;2.40;;;22.70;55.20;;;;;;4955178;28;88653;-58
2024/01/26 10:54:50;;;;;;;7.85;2.55;;;22.60;56.20;;;;;;4969908;27;88526;-59
2024/01/26 10:57:19;;;;;;;12.20;3.00;;;22.70;56.50;;;;;;4952138;28;87775;-58
2024/01/26 10:59:46;;;;;;;6.97;2.57;;;22.80;56.30;;;;;;4955890;28;86388;-59
2024/01/26 11:02:21;;;;;;;8.10;3.22;;;22.80;56.20;;;;;;4952128;28;88009;-58
2024/01/26 11:04:49;;;;;;;7.70;2.28;;;22.80;56.00;;;;;;4955998;28;88255;-57
2024/01/26 11:07:18;;;;;;;7.13;2.20;;;22.90;56.00;;;;;;4955994;28;88312;-59
2024/01/26 11:09:46;;;;;;;7.03;2.78;;;23.00;56.00;;;;;;4956133;28;88113;-59
2024/01/26 11:12:25;;;;;;;5.15;1.92;;;23.00;55.90;;;;;;4954495;28;88222;-58
2024/01/26 11:15:10;;;;;;;5.93;2.08;;;23.10;56.00;;;;;;4957593;27;88237;-58
2024/01/26 11:17:56;;;;;;;6.10;2.38;;;23.10;56.10;;;;;;4970975;28;87445;-59
2024/01/26 11:20:35;;;;;;;5.97;2.00;;;23.10;56.00;;;;;;4956430;28;87431;-58
2024/01/26 11:23:13;;;;;;;6.65;2.08;;;23.20;56.10;;;;;;4956107;28;88287;-59
2024/01/26 11:25:43;;;;;;;6.78;2.65;;;23.20;55.90;;;;;;4956416;28;87358;-58
2024/01/26 11:28:09;;;;;;;5.63;2.40;;;23.20;55.80;;;;;;4955558;28;87000;-60
2024/01/26 11:30:35;;;;;;;6.60;2.20;;;23.20;55.70;;;;;;4957469;28;87409;-60
2024/01/26 11:33:02;;;;;;;5.70;2.45;;;23.20;55.80;;;;;;4957772;28;88311;-58
2024/01/26 11:35:28;;;;;;;5.82;2.17;;;23.30;55.80;;;;;;4948038;28;89199;-60
2024/01/26 11:37:58;;;;;;;4.85;2.22;;;23.30;56.20;;;;;;4949620;28;87054;-60
2024/01/26 11:40:23;;;;;;;4.82;1.75;;;23.30;56.00;;;;;;4953082;28;91090;-60
2024/01/26 11:42:52;;;;;;;5.88;2.20;;;23.40;55.90;;;;;;4951745;28;89029;-58
2024/01/26 11:45:45;;;;;;;3.55;1.80;;;23.40;55.90;;;;;;4954381;28;88004;-59
2024/01/26 11:48:11;;;;;;;5.10;2.15;;;23.40;56.00;;;;;;4952512;28;87090;-59
2024/01/26 11:50:42;;;;;;;4.68;1.80;;;23.40;55.70;;;;;;4956709;27;86967;-58
2024/01/26 11:53:09;;;;;;;5.65;1.92;;;23.50;55.80;;;;;;4955098;28;88128;-58
2024/01/26 11:55:38;;;;;;;8.73;2.25;;;23.50;55.70;;;;;;4969166;28;90916;-60
2024/01/26 11:58:05;;;;;;;3.85;1.80;;;23.50;55.30;;;;;;4953062;28;88723;-60
2024/01/26 12:00:30;;;;;;;3.58;1.85;;;23.50;52.60;;;;;;4953080;28;87835;-60
2024/01/26 12:02:56;;;;;;;3.28;1.20;;;23.50;52.40;;;;;;4956107;28;87774;-61
2024/01/26 12:05:22;;;;;;;3.05;1.33;;;23.50;52.30;;;;;;4953364;28;88880;-61
2024/01/26 12:07:48;;;;;;;2.63;1.30;;;23.50;51.50;;;;;;4955153;28;86836;-62
2024/01/26 12:10:14;;;;;;;3.67;1.50;;;23.50;51.80;;;;;;4954724;28;87405;-60
2024/01/26 12:12:47;;;;;;;1.83;1.13;;;23.50;51.50;;;;;;4948821;28;88921;-61
2024/01/26 12:15:13;;;;;;;5.47;1.48;;;23.50;51.40;;;;;;4946092;28;88583;-59
2024/01/26 12:17:39;;;;;;;3.25;1.13;;;23.50;51.10;;;;;;4951474;28;88098;-59
2024/01/26 12:20:09;;;;;;;2.15;1.10;;;23.50;50.60;;;;;;4952163;28;87784;-59
2024/01/26 12:22:35;;;;;;;2.17;1.10;;;23.50;50.60;;;;;;4953104;28;89478;-59
2024/01/26 12:25:03;;;;;;;3.03;1.42;;;23.50;50.30;;;;;;4953578;27;88778;-59
2024/01/26 12:27:30;;;;;;;5.00;1.30;;;23.50;50.20;;;;;;4951388;28;87729;-59
2024/01/26 12:29:56;;;;;;;3.83;1.40;;;23.50;50.40;;;;;;4955897;28;87712;-58
2024/01/26 12:32:24;;;;;;;2.80;1.40;;;23.50;50.40;;;;;;4948852;28;88416;-60
2024/01/26 12:34:50;;;;;;;5.20;1.50;;;23.40;50.30;;;;;;4955050;28;88250;-58
2024/01/26 12:37:16;;;;;;;4.90;1.95;;;23.40;50.50;;;;;;4955140;27;87659;-59
2024/01/26 12:39:42;;;;;;;2.30;1.30;;;23.30;50.50;;;;;;4953907;28;86776;-59
2024/01/26 12:42:07;;;;;;;2.15;1.35;;;23.30;50.50;;;;;;4957161;28;87967;-59
2024/01/26 12:44:36;;;;;;;3.80;1.15;;;23.20;50.30;;;;;;4952709;28;88171;-59